Time,TemperatureF,DewpointF,PressureIn,WindDirection,WindDirectionDegrees,WindSpeedMPH,WindSpeedGustMPH,Humidity,HourlyPrecipIn,Conditions,Clouds,dailyrainin,SoftwareType,DateUTC
2013-03-31 00:00:00,65.7,56.0,30.22,East,88,0.0,0.0,71,0.00,,,0.00,Wunderground v.1.15,2013-03-31 04:00:00,
2013-03-31 00:03:00,65.7,56.0,30.21,ESE,118,0.0,2.0,71,0.00,,,0.00,Wunderground v.1.15,2013-03-31 04:03:00,
2013-03-31 00:05:00,65.7,56.0,30.21,ESE,118,0.0,2.0,71,0.00,,,0.00,Wunderground v.1.15,2013-03-31 04:05:00,
2013-03-31 00:12:00,65.8,56.1,30.21,SE,127,0.0,0.0,71,0.00,,,0.00,Wunderground v.1.15,2013-03-31 04:12:00,
2013-03-31 00:17:00,65.9,56.2,30.21,ESE,104,0.0,1.0,71,0.00,,,0.00,Wunderground v.1.15,2013-03-31 04:17:00,
2013-03-31 00:22:00,65.9,55.8,30.21,ESE,118,0.0,0.0,70,0.00,,,0.00,Wunderground v.1.15,2013-03-31 04:22:00,
2013-03-31 00:28:00,65.8,55.7,30.21,ESE,117,0.0,0.0,70,0.00,,,0.00,Wunderground v.1.15,2013-03-31 04:28:00,
2013-03-31 00:34:00,65.7,56.0,30.21,SE,133,0.0,0.0,71,0.00,,,0.00,Wunderground v.1.15,2013-03-31 04:34:00,
2013-03-31 00:39:00,65.7,56.0,30.21,ESE,111,0.0,0.0,71,0.00,,,0.00,Wunderground v.1.15,2013-03-31 04:39:00,
2013-03-31 00:44:00,65.5,55.8,30.21,East,92,0.0,0.0,71,0.00,,,0.00,Wunderground v.1.15,2013-03-31 04:44:00,
2013-03-31 00:50:00,65.5,55.8,30.20,East,96,0.0,0.0,71,0.00,,,0.00,Wunderground v.1.15,2013-03-31 04:50:00,
2013-03-31 00:55:00,65.4,55.7,30.20,East,95,0.0,0.0,71,0.00,,,0.00,Wunderground v.1.15,2013-03-31 04:55:00,
2013-03-31 01:00:00,65.2,55.9,30.20,ESE,117,0.0,0.0,72,0.00,,,0.00,Wunderground v.1.15,2013-03-31 05:00:00,
2013-03-31 01:06:00,64.9,56.0,30.20,ESE,117,0.0,0.0,73,0.00,,,0.00,Wunderground v.1.15,2013-03-31 05:06:00,
2013-03-31 01:11:00,64.7,55.8,30.20,ESE,121,0.0,0.0,73,0.00,,,0.00,Wunderground v.1.15,2013-03-31 05:11:00,
2013-03-31 01:17:00,64.8,56.3,30.20,ESE,110,0.0,0.0,74,0.00,,,0.00,Wunderground v.1.15,2013-03-31 05:17:00,
2013-03-31 01:22:00,64.8,56.3,30.20,ESE,111,0.0,0.0,74,0.00,,,0.00,Wunderground v.1.15,2013-03-31 05:22:00,
2013-03-31 01:28:00,64.8,56.3,30.20,ESE,109,0.0,0.0,74,0.00,,,0.00,Wunderground v.1.15,2013-03-31 05:28:00,
2013-03-31 01:33:00,64.7,56.2,30.20,ESE,113,0.0,0.0,74,0.00,,,0.00,Wunderground v.1.15,2013-03-31 05:33:00,
2013-03-31 01:39:00,64.7,56.2,30.20,ESE,111,0.0,0.0,74,0.00,,,0.00,Wunderground v.1.15,2013-03-31 05:39:00,
2013-03-31 01:44:00,64.7,56.6,30.19,ESE,106,0.0,1.0,75,0.00,,,0.00,Wunderground v.1.15,2013-03-31 05:44:00,
2013-03-31 01:50:00,64.9,56.4,30.19,SE,127,0.0,0.0,74,0.00,,,0.00,Wunderground v.1.15,2013-03-31 05:50:00,
2013-03-31 01:55:00,64.8,56.3,30.19,East,82,0.0,1.0,74,0.00,,,0.00,Wunderground v.1.15,2013-03-31 05:55:00,
2013-03-31 02:00:00,64.9,56.8,30.18,ENE,76,0.0,0.0,75,0.00,,,0.00,Wunderground v.1.15,2013-03-31 06:00:00,
2013-03-31 02:05:00,64.9,56.8,30.18,East,92,0.0,0.0,75,0.00,,,0.00,Wunderground v.1.15,2013-03-31 06:05:00,
2013-03-31 02:10:00,64.9,56.8,30.18,East,94,0.0,0.0,75,0.00,,,0.00,Wunderground v.1.15,2013-03-31 06:10:00,
2013-03-31 02:15:00,64.7,56.6,30.18,ESE,107,0.0,1.0,75,0.00,,,0.00,Wunderground v.1.15,2013-03-31 06:15:00,
2013-03-31 02:20:00,64.7,56.6,30.18,ESE,108,0.0,0.0,75,0.00,,,0.00,Wunderground v.1.15,2013-03-31 06:20:00,
2013-03-31 02:25:00,64.6,56.5,30.18,ESE,112,0.0,0.0,75,0.00,,,0.00,Wunderground v.1.15,2013-03-31 06:25:00,
2013-03-31 02:30:00,64.5,56.8,30.18,ESE,111,0.0,0.0,76,0.00,,,0.00,Wunderground v.1.15,2013-03-31 06:30:00,
2013-03-31 02:35:00,64.5,56.8,30.18,ESE,116,0.0,1.0,76,0.00,,,0.00,Wunderground v.1.15,2013-03-31 06:35:00,
2013-03-31 02:40:00,64.5,56.8,30.17,SE,124,0.0,1.0,76,0.00,,,0.00,Wunderground v.1.15,2013-03-31 06:40:00,
2013-03-31 02:45:00,64.4,56.7,30.17,ESE,122,0.0,1.0,76,0.00,,,0.00,Wunderground v.1.15,2013-03-31 06:45:00,
2013-03-31 02:50:00,64.4,57.0,30.17,ESE,109,0.0,0.0,77,0.00,,,0.00,Wunderground v.1.15,2013-03-31 06:50:00,
2013-03-31 02:55:00,64.3,56.9,30.17,ESE,109,0.0,1.0,77,0.00,,,0.00,Wunderground v.1.15,2013-03-31 06:55:00,
2013-03-31 03:00:00,64.2,56.8,30.17,ESE,109,0.0,0.0,77,0.00,,,0.00,Wunderground v.1.15,2013-03-31 07:00:00,
2013-03-31 03:05:00,64.1,57.1,30.17,ESE,109,0.0,0.0,78,0.00,,,0.00,Wunderground v.1.15,2013-03-31 07:05:00,
2013-03-31 03:10:00,64.0,57.0,30.17,ESE,110,0.0,1.0,78,0.00,,,0.00,Wunderground v.1.15,2013-03-31 07:10:00,
2013-03-31 03:15:00,64.1,57.1,30.16,ESE,114,0.0,2.0,78,0.00,,,0.00,Wunderground v.1.15,2013-03-31 07:15:00,
2013-03-31 03:20:00,64.2,56.8,30.16,ESE,111,0.0,0.0,77,0.00,,,0.00,Wunderground v.1.15,2013-03-31 07:20:00,
2013-03-31 03:25:00,64.3,56.9,30.16,East,95,0.0,2.0,77,0.00,,,0.00,Wunderground v.1.15,2013-03-31 07:25:00,
2013-03-31 03:30:00,64.3,56.9,30.16,SE,133,0.0,0.0,77,0.00,,,0.00,Wunderground v.1.15,2013-03-31 07:30:00,
2013-03-31 03:35:00,64.2,56.8,30.16,SE,132,0.0,0.0,77,0.00,,,0.00,Wunderground v.1.15,2013-03-31 07:35:00,
2013-03-31 03:40:00,64.1,56.7,30.16,SE,133,0.0,0.0,77,0.00,,,0.00,Wunderground v.1.15,2013-03-31 07:40:00,
2013-03-31 03:45:00,64.0,56.6,30.16,SE,124,0.0,1.0,77,0.00,,,0.00,Wunderground v.1.15,2013-03-31 07:45:00,
2013-03-31 03:50:00,63.9,56.5,30.16,SE,124,0.0,0.0,77,0.00,,,0.00,Wunderground v.1.15,2013-03-31 07:50:00,
2013-03-31 03:55:00,63.8,56.4,30.16,SE,124,0.0,0.0,77,0.00,,,0.00,Wunderground v.1.15,2013-03-31 07:55:00,
2013-03-31 04:00:00,63.5,56.5,30.16,SE,124,0.0,0.0,78,0.00,,,0.00,Wunderground v.1.15,2013-03-31 08:00:00,
2013-03-31 04:05:00,63.3,56.3,30.15,SE,124,0.0,0.0,78,0.00,,,0.00,Wunderground v.1.15,2013-03-31 08:05:00,
2013-03-31 04:10:00,63.1,56.5,30.15,SE,124,0.0,0.0,79,0.00,,,0.00,Wunderground v.1.15,2013-03-31 08:10:00,
2013-03-31 04:15:00,62.9,56.3,30.15,SE,124,0.0,0.0,79,0.00,,,0.00,Wunderground v.1.15,2013-03-31 08:15:00,
2013-03-31 04:20:00,62.7,56.4,30.15,SE,124,0.0,0.0,80,0.00,,,0.00,Wunderground v.1.15,2013-03-31 08:20:00,
2013-03-31 04:25:00,62.6,56.7,30.15,SE,124,0.0,0.0,81,0.00,,,0.00,Wunderground v.1.15,2013-03-31 08:25:00,
2013-03-31 04:30:00,62.6,56.3,30.15,SE,124,0.0,0.0,80,0.00,,,0.00,Wunderground v.1.15,2013-03-31 08:30:00,
2013-03-31 04:35:00,62.5,56.6,30.15,SE,124,0.0,0.0,81,0.00,,,0.00,Wunderground v.1.15,2013-03-31 08:35:00,
2013-03-31 04:40:00,62.5,57.6,30.15,SE,124,0.0,0.0,84,0.00,,,0.00,Wunderground v.1.15,2013-03-31 08:40:00,
2013-03-31 04:45:00,62.3,57.1,30.15,SE,124,0.0,0.0,83,0.00,,,0.00,Wunderground v.1.15,2013-03-31 08:45:00,
2013-03-31 04:50:00,62.1,56.5,30.15,SE,124,0.0,0.0,82,0.00,,,0.00,Wunderground v.1.15,2013-03-31 08:50:00,
2013-03-31 04:55:00,62.1,56.9,30.15,SE,124,0.0,0.0,83,0.00,,,0.00,Wunderground v.1.15,2013-03-31 08:55:00,
2013-03-31 05:01:00,61.9,56.7,30.16,SE,124,0.0,0.0,83,0.00,,,0.00,Wunderground v.1.15,2013-03-31 09:01:00,
2013-03-31 05:07:00,61.7,56.5,30.15,SE,124,0.0,0.0,83,0.00,,,0.00,Wunderground v.1.15,2013-03-31 09:07:00,
2013-03-31 05:12:00,61.6,56.7,30.15,SE,124,0.0,0.0,84,0.00,,,0.00,Wunderground v.1.15,2013-03-31 09:12:00,
2013-03-31 05:17:00,61.6,56.7,30.15,SE,124,0.0,0.0,84,0.00,,,0.00,Wunderground v.1.15,2013-03-31 09:17:00,
2013-03-31 05:22:00,61.5,56.6,30.15,SE,124,0.0,0.0,84,0.00,,,0.00,Wunderground v.1.15,2013-03-31 09:22:00,
2013-03-31 05:27:00,61.6,57.7,30.15,SE,124,0.0,0.0,87,0.00,,,0.00,Wunderground v.1.15,2013-03-31 09:27:00,
2013-03-31 05:32:00,61.6,57.4,30.15,SE,124,0.0,0.0,86,0.00,,,0.00,Wunderground v.1.15,2013-03-31 09:32:00,
2013-03-31 05:37:00,61.6,57.4,30.14,SE,124,0.0,0.0,86,0.00,,,0.00,Wunderground v.1.15,2013-03-31 09:37:00,
2013-03-31 05:42:00,61.4,57.5,30.15,SE,124,0.0,0.0,87,0.00,,,0.00,Wunderground v.1.15,2013-03-31 09:42:00,
2013-03-31 05:47:00,61.6,58.3,30.15,SE,124,0.0,0.0,89,0.00,,,0.00,Wunderground v.1.15,2013-03-31 09:47:00,
2013-03-31 05:52:00,61.3,57.4,30.15,SE,124,0.0,0.0,87,0.00,,,0.00,Wunderground v.1.15,2013-03-31 09:52:00,
2013-03-31 05:57:00,61.0,57.4,30.15,SE,124,0.0,0.0,88,0.00,,,0.00,Wunderground v.1.15,2013-03-31 09:57:00,
2013-03-31 06:02:00,60.9,57.6,30.15,SE,124,0.0,0.0,89,0.00,,,0.00,Wunderground v.1.15,2013-03-31 10:02:00,
2013-03-31 06:07:00,60.9,57.6,30.15,SE,124,0.0,0.0,89,0.00,,,0.00,Wunderground v.1.15,2013-03-31 10:07:00,
2013-03-31 06:12:00,60.8,57.5,30.16,SE,124,0.0,0.0,89,0.00,,,0.00,Wunderground v.1.15,2013-03-31 10:12:00,
2013-03-31 06:18:00,60.6,57.3,30.16,SE,124,0.0,0.0,89,0.00,,,0.00,Wunderground v.1.15,2013-03-31 10:18:00,
2013-03-31 06:23:00,60.5,57.2,30.16,SE,124,0.0,0.0,89,0.00,,,0.00,Wunderground v.1.15,2013-03-31 10:23:00,
2013-03-31 06:28:00,60.4,57.5,30.16,SE,124,0.0,0.0,90,0.00,,,0.00,Wunderground v.1.15,2013-03-31 10:28:00,
2013-03-31 06:33:00,60.7,57.7,30.15,SE,124,0.0,0.0,90,0.00,,,0.00,Wunderground v.1.15,2013-03-31 10:33:00,
2013-03-31 06:38:00,60.6,57.7,30.16,SE,124,0.0,0.0,90,0.00,,,0.00,Wunderground v.1.15,2013-03-31 10:38:00,
2013-03-31 06:43:00,60.8,58.2,30.16,SE,124,0.0,0.0,91,0.00,,,0.00,Wunderground v.1.15,2013-03-31 10:43:00,
2013-03-31 06:48:00,61.0,58.4,30.16,SE,124,0.0,0.0,91,0.00,,,0.00,Wunderground v.1.15,2013-03-31 10:48:00,
2013-03-31 06:53:00,60.8,58.2,30.16,SE,124,0.0,0.0,91,0.00,,,0.00,Wunderground v.1.15,2013-03-31 10:53:00,
2013-03-31 06:58:00,60.6,58.0,30.16,SE,124,0.0,0.0,91,0.00,,,0.00,Wunderground v.1.15,2013-03-31 10:58:00,
2013-03-31 07:03:00,60.4,57.8,30.16,SE,124,0.0,0.0,91,0.00,,,0.00,Wunderground v.1.15,2013-03-31 11:03:00,
2013-03-31 07:08:00,60.5,57.9,30.16,SE,124,0.0,0.0,91,0.00,,,0.00,Wunderground v.1.15,2013-03-31 11:08:00,
2013-03-31 07:13:00,60.6,58.3,30.16,SE,124,0.0,0.0,92,0.00,,,0.00,Wunderground v.1.15,2013-03-31 11:13:00,
2013-03-31 07:18:00,60.7,58.4,30.16,SE,124,0.0,0.0,92,0.00,,,0.00,Wunderground v.1.15,2013-03-31 11:18:00,
2013-03-31 07:23:00,60.9,58.6,30.16,SE,124,0.0,0.0,92,0.00,,,0.00,Wunderground v.1.15,2013-03-31 11:23:00,
2013-03-31 07:28:00,60.9,58.3,30.16,SE,124,0.0,0.0,91,0.00,,,0.00,Wunderground v.1.15,2013-03-31 11:28:00,
2013-03-31 07:33:00,60.9,58.3,30.16,SE,124,0.0,0.0,91,0.00,,,0.00,Wunderground v.1.15,2013-03-31 11:33:00,
2013-03-31 07:38:00,61.0,58.4,30.16,SE,124,0.0,0.0,91,0.00,,,0.00,Wunderground v.1.15,2013-03-31 11:38:00,
2013-03-31 07:43:00,61.3,59.0,30.16,SE,124,0.0,0.0,92,0.00,,,0.00,Wunderground v.1.15,2013-03-31 11:43:00,
2013-03-31 07:48:00,61.6,59.3,30.17,SE,124,0.0,0.0,92,0.00,,,0.00,Wunderground v.1.15,2013-03-31 11:48:00,
2013-03-31 07:53:00,62.0,59.6,30.17,SE,124,0.0,0.0,92,0.00,,,0.00,Wunderground v.1.15,2013-03-31 11:53:00,
2013-03-31 07:59:00,63.0,60.9,30.16,SE,124,0.0,0.0,93,0.00,,,0.00,Wunderground v.1.15,2013-03-31 11:59:00,
2013-03-31 08:04:00,64.2,61.8,30.16,SE,124,0.0,0.0,92,0.00,,,0.00,Wunderground v.1.15,2013-03-31 12:04:00,
2013-03-31 08:09:00,65.4,62.1,30.16,SE,124,0.0,0.0,89,0.00,,,0.00,Wunderground v.1.15,2013-03-31 12:09:00,
2013-03-31 08:14:00,66.5,62.5,30.16,SE,124,0.0,0.0,87,0.00,,,0.00,Wunderground v.1.15,2013-03-31 12:14:00,
2013-03-31 08:19:00,67.4,62.7,30.16,SE,124,0.0,0.0,85,0.00,,,0.00,Wunderground v.1.15,2013-03-31 12:19:00,
2013-03-31 08:24:00,68.1,62.7,30.17,SE,124,0.0,0.0,83,0.00,,,0.00,Wunderground v.1.15,2013-03-31 12:24:00,
2013-03-31 08:29:00,68.6,62.9,30.17,ESE,123,0.0,0.0,82,0.00,,,0.00,Wunderground v.1.15,2013-03-31 12:29:00,
2013-03-31 08:34:00,68.8,62.7,30.17,ESE,123,0.0,0.0,81,0.00,,,0.00,Wunderground v.1.15,2013-03-31 12:34:00,
2013-03-31 08:39:00,69.5,63.4,30.17,ESE,123,0.0,0.0,81,0.00,,,0.00,Wunderground v.1.15,2013-03-31 12:39:00,
2013-03-31 08:44:00,70.4,63.9,30.17,ESE,122,0.0,0.0,80,0.00,,,0.00,Wunderground v.1.15,2013-03-31 12:44:00,
2013-03-31 08:49:00,71.1,64.3,30.17,ESE,122,0.0,1.0,79,0.00,,,0.00,Wunderground v.1.15,2013-03-31 12:49:00,
2013-03-31 08:54:00,71.7,64.1,30.17,SSE,160,0.0,4.0,77,0.00,,,0.00,Wunderground v.1.15,2013-03-31 12:54:00,
2013-03-31 08:59:00,72.5,64.5,30.17,SSE,163,0.0,6.0,76,0.00,,,0.00,Wunderground v.1.15,2013-03-31 12:59:00,
2013-03-31 09:04:00,73.1,64.3,30.17,ESE,109,4.0,7.0,74,0.00,,,0.00,Wunderground v.1.15,2013-03-31 13:04:00,
2013-03-31 09:09:00,73.7,64.5,30.17,ESE,114,0.0,7.0,73,0.00,,,0.00,Wunderground v.1.15,2013-03-31 13:09:00,
2013-03-31 09:14:00,74.4,64.8,30.17,SE,134,2.0,10.0,72,0.00,,,0.00,Wunderground v.1.15,2013-03-31 13:14:00,
2013-03-31 09:19:00,74.3,64.7,30.17,East,101,0.0,10.0,72,0.00,,,0.00,Wunderground v.1.15,2013-03-31 13:19:00,
2013-03-31 09:24:00,74.2,64.6,30.17,East,101,0.0,11.0,72,0.00,,,0.00,Wunderground v.1.15,2013-03-31 13:24:00,
2013-03-31 09:29:00,74.6,65.0,30.17,SSW,194,4.0,11.0,72,0.00,,,0.00,Wunderground v.1.15,2013-03-31 13:29:00,
2013-03-31 09:34:00,74.6,64.6,30.17,SE,139,3.0,9.0,71,0.00,,,0.00,Wunderground v.1.15,2013-03-31 13:34:00,
2013-03-31 09:39:00,74.5,64.5,30.17,NNE,32,0.0,9.0,71,0.00,,,0.00,Wunderground v.1.15,2013-03-31 13:39:00,
2013-03-31 09:45:00,74.7,64.7,30.17,ESE,111,6.0,8.0,71,0.00,,,0.00,Wunderground v.1.15,2013-03-31 13:45:00,
2013-03-31 09:50:00,74.8,64.8,30.18,East,98,0.0,8.0,71,0.00,,,0.00,Wunderground v.1.15,2013-03-31 13:50:00,
2013-03-31 09:55:00,75.1,64.6,30.17,ESE,115,1.0,6.0,70,0.00,,,0.00,Wunderground v.1.15,2013-03-31 13:55:00,
2013-03-31 10:00:00,75.1,64.6,30.18,ESE,111,2.0,5.0,70,0.00,,,0.00,Wunderground v.1.15,2013-03-31 14:00:00,
2013-03-31 10:05:00,75.0,64.5,30.18,SSE,152,0.0,5.0,70,0.00,,,0.00,Wunderground v.1.15,2013-03-31 14:05:00,
2013-03-31 10:10:00,75.3,64.8,30.18,SE,134,0.0,2.0,70,0.00,,,0.00,Wunderground v.1.15,2013-03-31 14:10:00,
2013-03-31 10:15:00,75.2,64.7,30.18,East,87,0.0,4.0,70,0.00,,,0.00,Wunderground v.1.15,2013-03-31 14:15:00,
2013-03-31 10:20:00,75.2,64.7,30.17,NNW,343,1.0,2.0,70,0.00,,,0.00,Wunderground v.1.15,2013-03-31 14:20:00,
2013-03-31 10:25:00,75.0,63.7,30.17,East,83,5.0,10.0,68,0.00,,,0.00,Wunderground v.1.15,2013-03-31 14:25:00,
2013-03-31 10:30:00,74.7,63.9,30.18,ESE,121,6.0,6.0,69,0.00,,,0.00,Wunderground v.1.15,2013-03-31 14:30:00,
2013-03-31 10:35:00,74.5,64.5,30.18,ESE,102,4.0,7.0,71,0.00,,,0.00,Wunderground v.1.15,2013-03-31 14:35:00,
2013-03-31 10:40:00,74.7,65.5,30.17,SE,142,5.0,5.0,73,0.00,,,0.00,Wunderground v.1.15,2013-03-31 14:40:00,
2013-03-31 10:45:00,75.6,66.3,30.17,SE,135,0.0,6.0,73,0.00,,,0.00,Wunderground v.1.15,2013-03-31 14:45:00,
2013-03-31 10:50:00,76.2,66.1,30.17,ESE,115,0.0,1.0,71,0.00,,,0.00,Wunderground v.1.15,2013-03-31 14:50:00,
2013-03-31 10:55:00,76.7,65.3,30.17,SW,218,2.0,7.0,68,0.00,,,0.00,Wunderground v.1.15,2013-03-31 14:55:00,
2013-03-31 11:00:00,76.4,65.5,30.17,ESE,113,1.0,5.0,69,0.00,,,0.00,Wunderground v.1.15,2013-03-31 15:00:00,
2013-03-31 11:05:00,77.1,65.7,30.17,East,97,0.0,9.0,68,0.00,,,0.00,Wunderground v.1.15,2013-03-31 15:05:00,
2013-03-31 11:10:00,77.4,65.1,30.17,South,174,2.0,4.0,66,0.00,,,0.00,Wunderground v.1.15,2013-03-31 15:10:00,
2013-03-31 11:15:00,77.8,65.1,30.17,SSE,148,5.0,7.0,65,0.00,,,0.00,Wunderground v.1.15,2013-03-31 15:15:00,
2013-03-31 11:20:00,78.1,65.4,30.17,ESE,103,3.0,7.0,65,0.00,,,0.00,Wunderground v.1.15,2013-03-31 15:20:00,
2013-03-31 11:25:00,78.2,65.9,30.17,SSW,194,0.0,7.0,66,0.00,,,0.00,Wunderground v.1.15,2013-03-31 15:25:00,
2013-03-31 11:30:00,78.4,64.3,30.17,SSE,159,1.0,2.0,62,0.00,,,0.00,Wunderground v.1.15,2013-03-31 15:30:00,
2013-03-31 11:35:00,78.4,64.3,30.17,SE,143,3.0,8.0,62,0.00,,,0.00,Wunderground v.1.15,2013-03-31 15:35:00,
2013-03-31 11:40:00,78.3,64.2,30.17,ESE,116,6.0,7.0,62,0.00,,,0.00,Wunderground v.1.15,2013-03-31 15:40:00,
2013-03-31 11:45:00,78.3,64.2,30.16,SSE,166,3.0,8.0,62,0.00,,,0.00,Wunderground v.1.15,2013-03-31 15:45:00,
2013-03-31 11:50:00,78.9,64.3,30.16,South,191,0.0,3.0,61,0.00,,,0.00,Wunderground v.1.15,2013-03-31 15:50:00,
2013-03-31 11:55:00,79.0,63.9,30.16,SSE,150,3.0,10.0,60,0.00,,,0.00,Wunderground v.1.15,2013-03-31 15:55:00,
2013-03-31 12:00:00,78.7,64.1,30.16,SE,124,3.0,4.0,61,0.00,,,0.00,Wunderground v.1.15,2013-03-31 16:00:00,
2013-03-31 12:05:00,78.8,62.8,30.16,SSE,165,1.0,12.0,58,0.00,,,0.00,Wunderground v.1.15,2013-03-31 16:05:00,
2013-03-31 12:10:00,79.4,63.8,30.16,East,95,4.0,4.0,59,0.00,,,0.00,Wunderground v.1.15,2013-03-31 16:10:00,
2013-03-31 12:15:00,79.3,63.7,30.16,SSE,156,2.0,9.0,59,0.00,,,0.00,Wunderground v.1.15,2013-03-31 16:15:00,
2013-03-31 12:20:00,79.3,63.2,30.16,ESE,115,4.0,8.0,58,0.00,,,0.00,Wunderground v.1.15,2013-03-31 16:20:00,
2013-03-31 12:25:00,79.3,63.7,30.15,South,179,1.0,12.0,59,0.00,,,0.00,Wunderground v.1.15,2013-03-31 16:25:00,
2013-03-31 12:30:00,79.3,63.2,30.15,ESE,121,9.0,13.0,58,0.00,,,0.00,Wunderground v.1.15,2013-03-31 16:30:00,
2013-03-31 12:35:00,79.3,63.7,30.15,ENE,76,3.0,13.0,59,0.00,,,0.00,Wunderground v.1.15,2013-03-31 16:35:00,
2013-03-31 12:40:00,79.5,63.4,30.14,SW,219,0.0,6.0,58,0.00,,,0.00,Wunderground v.1.15,2013-03-31 16:40:00,
2013-03-31 12:45:00,79.5,63.9,30.14,SSW,211,1.0,10.0,59,0.00,,,0.00,Wunderground v.1.15,2013-03-31 16:45:00,
2013-03-31 12:50:00,80.3,63.7,30.15,SE,132,0.0,6.0,57,0.00,,,0.00,Wunderground v.1.15,2013-03-31 16:50:00,
2013-03-31 12:55:00,80.3,64.2,30.14,SSE,167,1.0,6.0,58,0.00,,,0.00,Wunderground v.1.15,2013-03-31 16:55:00,
2013-03-31 13:00:00,80.9,64.7,30.14,WSW,251,7.0,7.0,58,0.00,,,0.00,Wunderground v.1.15,2013-03-31 17:00:00,
2013-03-31 13:05:00,80.7,64.1,30.14,SSE,149,4.0,7.0,57,0.00,,,0.00,Wunderground v.1.15,2013-03-31 17:05:00,
2013-03-31 13:10:00,80.4,64.8,30.14,SW,214,1.0,7.0,59,0.00,,,0.00,Wunderground v.1.15,2013-03-31 17:10:00,
2013-03-31 13:15:00,80.6,64.9,30.14,SSW,203,0.0,7.0,59,0.00,,,0.00,Wunderground v.1.15,2013-03-31 17:15:00,
2013-03-31 13:21:00,80.8,64.6,30.14,South,190,0.0,5.0,58,0.00,,,0.00,Wunderground v.1.15,2013-03-31 17:21:00,
2013-03-31 13:26:00,80.4,64.3,30.14,SE,132,3.0,12.0,58,0.00,,,0.00,Wunderground v.1.15,2013-03-31 17:26:00,
2013-03-31 13:31:00,79.6,64.5,30.14,SSE,148,0.0,4.0,60,0.00,,,0.00,Wunderground v.1.15,2013-03-31 17:31:00,
2013-03-31 13:36:00,79.9,65.7,30.14,SSW,201,1.0,10.0,62,0.00,,,0.00,Wunderground v.1.15,2013-03-31 17:36:00,
2013-03-31 13:41:00,79.7,64.1,30.14,ESE,106,4.0,10.0,59,0.00,,,0.00,Wunderground v.1.15,2013-03-31 17:41:00,
2013-03-31 13:46:00,79.9,64.3,30.13,ESE,117,4.0,10.0,59,0.00,,,0.00,Wunderground v.1.15,2013-03-31 17:46:00,
2013-03-31 13:51:00,79.9,64.3,30.13,ESE,111,7.0,7.0,59,0.00,,,0.00,Wunderground v.1.15,2013-03-31 17:51:00,
2013-03-31 13:56:00,79.4,64.3,30.13,SW,231,2.0,11.0,60,0.00,,,0.00,Wunderground v.1.15,2013-03-31 17:56:00,
2013-03-31 14:01:00,79.3,63.7,30.13,SSW,193,4.0,4.0,59,0.00,,,0.00,Wunderground v.1.15,2013-03-31 18:01:00,
2013-03-31 14:06:00,79.4,64.8,30.13,WNW,283,0.0,9.0,61,0.00,,,0.00,Wunderground v.1.15,2013-03-31 18:06:00,
2013-03-31 14:11:00,79.6,64.5,30.13,ENE,77,6.0,6.0,60,0.00,,,0.00,Wunderground v.1.15,2013-03-31 18:11:00,
2013-03-31 14:16:00,79.6,64.5,30.12,SSW,195,2.0,8.0,60,0.00,,,0.00,Wunderground v.1.15,2013-03-31 18:16:00,
2013-03-31 14:21:00,79.4,64.3,30.12,SSW,207,2.0,7.0,60,0.00,,,0.00,Wunderground v.1.15,2013-03-31 18:21:00,
2013-03-31 14:27:00,79.4,65.2,30.12,ESE,118,2.0,8.0,62,0.00,,,0.00,Wunderground v.1.15,2013-03-31 18:27:00,
2013-03-31 14:32:00,79.5,64.9,30.12,SW,222,7.0,7.0,61,0.00,,,0.00,Wunderground v.1.15,2013-03-31 18:32:00,
2013-03-31 14:37:00,79.6,65.4,30.12,East,96,7.0,10.0,62,0.00,,,0.00,Wunderground v.1.15,2013-03-31 18:37:00,
2013-03-31 14:42:00,79.6,65.4,30.12,SE,129,5.0,7.0,62,0.00,,,0.00,Wunderground v.1.15,2013-03-31 18:42:00,
2013-03-31 14:47:00,79.5,64.9,30.12,ESE,114,2.0,7.0,61,0.00,,,0.00,Wunderground v.1.15,2013-03-31 18:47:00,
2013-03-31 14:52:00,79.2,65.1,30.11,East,90,2.0,8.0,62,0.00,,,0.00,Wunderground v.1.15,2013-03-31 18:52:00,
2013-03-31 14:57:00,79.2,65.1,30.11,East,86,4.0,13.0,62,0.00,,,0.00,Wunderground v.1.15,2013-03-31 18:57:00,
2013-03-31 15:02:00,79.8,66.1,30.11,ESE,108,3.0,3.0,63,0.00,,,0.00,Wunderground v.1.15,2013-03-31 19:02:00,
2013-03-31 15:07:00,80.2,65.5,30.11,East,88,6.0,10.0,61,0.00,,,0.00,Wunderground v.1.15,2013-03-31 19:07:00,
2013-03-31 15:12:00,80.3,66.6,30.11,East,79,1.0,3.0,63,0.00,,,0.00,Wunderground v.1.15,2013-03-31 19:12:00,
2013-03-31 15:17:00,81.5,66.3,30.10,ENE,60,0.0,8.0,60,0.00,,,0.00,Wunderground v.1.15,2013-03-31 19:17:00,
2013-03-31 15:22:00,81.2,66.0,30.11,SSE,165,2.0,7.0,60,0.00,,,0.00,Wunderground v.1.15,2013-03-31 19:22:00,
2013-03-31 15:27:00,80.7,66.9,30.11,SE,138,1.0,7.0,63,0.00,,,0.00,Wunderground v.1.15,2013-03-31 19:27:00,
2013-03-31 15:33:00,80.4,66.6,30.10,ENE,77,3.0,7.0,63,0.00,,,0.00,Wunderground v.1.15,2013-03-31 19:33:00,
2013-03-31 15:38:00,79.6,65.9,30.10,SSE,167,6.0,8.0,63,0.00,,,0.00,Wunderground v.1.15,2013-03-31 19:38:00,
2013-03-31 15:43:00,79.0,66.2,30.10,ESE,115,1.0,7.0,65,0.00,,,0.00,Wunderground v.1.15,2013-03-31 19:43:00,
2013-03-31 15:48:00,78.9,65.7,30.10,NNE,31,2.0,11.0,64,0.00,,,0.00,Wunderground v.1.15,2013-03-31 19:48:00,
2013-03-31 15:54:00,78.8,66.9,30.10,East,91,4.0,9.0,67,0.00,,,0.00,Wunderground v.1.15,2013-03-31 19:54:00,
2013-03-31 15:59:00,79.3,66.5,30.09,South,177,2.0,9.0,65,0.00,,,0.00,Wunderground v.1.15,2013-03-31 19:59:00,
2013-03-31 16:04:00,79.2,66.0,30.09,South,183,3.0,8.0,64,0.00,,,0.00,Wunderground v.1.15,2013-03-31 20:04:00,
2013-03-31 16:09:00,79.2,66.9,30.09,East,101,4.0,11.0,66,0.00,,,0.00,Wunderground v.1.15,2013-03-31 20:09:00,
2013-03-31 16:14:00,79.6,66.3,30.09,SSW,204,5.0,8.0,64,0.00,,,0.00,Wunderground v.1.15,2013-03-31 20:14:00,
2013-03-31 16:19:00,79.5,66.7,30.09,SW,217,3.0,8.0,65,0.00,,,0.00,Wunderground v.1.15,2013-03-31 20:19:00,
2013-03-31 16:24:00,80.1,66.4,30.09,South,186,0.0,7.0,63,0.00,,,0.00,Wunderground v.1.15,2013-03-31 20:24:00,
2013-03-31 16:29:00,80.4,67.1,30.08,ENE,68,0.0,7.0,64,0.00,,,0.00,Wunderground v.1.15,2013-03-31 20:29:00,
2013-03-31 16:34:00,79.7,66.4,30.08,East,81,1.0,7.0,64,0.00,,,0.00,Wunderground v.1.15,2013-03-31 20:34:00,
2013-03-31 16:39:00,79.3,66.1,30.08,SSE,155,2.0,8.0,64,0.00,,,0.00,Wunderground v.1.15,2013-03-31 20:39:00,
2013-03-31 16:44:00,79.2,66.4,30.08,ENE,65,3.0,6.0,65,0.00,,,0.00,Wunderground v.1.15,2013-03-31 20:44:00,
2013-03-31 16:49:00,79.4,66.6,30.08,ESE,118,3.0,6.0,65,0.00,,,0.00,Wunderground v.1.15,2013-03-31 20:49:00,
2013-03-31 16:54:00,78.8,66.9,30.08,North,350,1.0,7.0,67,0.00,,,0.00,Wunderground v.1.15,2013-03-31 20:54:00,
2013-03-31 16:59:00,79.1,66.8,30.08,SE,127,4.0,7.0,66,0.00,,,0.00,Wunderground v.1.15,2013-03-31 20:59:00,
2013-03-31 17:04:00,79.2,66.9,30.08,SSW,193,0.0,6.0,66,0.00,,,0.00,Wunderground v.1.15,2013-03-31 21:04:00,
2013-03-31 17:09:00,79.7,66.9,30.07,ESE,116,2.0,9.0,65,0.00,,,0.00,Wunderground v.1.15,2013-03-31 21:09:00,
2013-03-31 17:14:00,79.6,67.2,30.07,East,93,2.0,9.0,66,0.00,,,0.00,Wunderground v.1.15,2013-03-31 21:14:00,
2013-03-31 17:19:00,79.4,66.6,30.07,SE,134,4.0,9.0,65,0.00,,,0.00,Wunderground v.1.15,2013-03-31 21:19:00,
2013-03-31 17:24:00,79.5,66.3,30.07,SSE,166,2.0,7.0,64,0.00,,,0.00,Wunderground v.1.15,2013-03-31 21:24:00,
2013-03-31 17:29:00,79.7,66.9,30.07,SE,127,6.0,11.0,65,0.00,,,0.00,Wunderground v.1.15,2013-03-31 21:29:00,
2013-03-31 17:34:00,79.5,67.1,30.07,SW,218,1.0,7.0,66,0.00,,,0.00,Wunderground v.1.15,2013-03-31 21:34:00,
2013-03-31 17:39:00,79.0,67.1,30.07,SE,136,6.0,10.0,67,0.00,,,0.00,Wunderground v.1.15,2013-03-31 21:39:00,
2013-03-31 17:44:00,78.9,67.0,30.07,East,91,3.0,6.0,67,0.00,,,0.00,Wunderground v.1.15,2013-03-31 21:44:00,
2013-03-31 17:49:00,78.4,67.0,30.07,South,191,4.0,7.0,68,0.00,,,0.00,Wunderground v.1.15,2013-03-31 21:49:00,
2013-03-31 17:54:00,78.2,67.2,30.07,WSW,239,1.0,6.0,69,0.00,,,0.00,Wunderground v.1.15,2013-03-31 21:54:00,
2013-03-31 17:59:00,78.6,67.2,30.08,SSW,211,1.0,6.0,68,0.00,,,0.00,Wunderground v.1.15,2013-03-31 21:59:00,
2013-03-31 18:04:00,78.5,66.6,30.07,ESE,112,3.0,8.0,67,0.00,,,0.00,Wunderground v.1.15,2013-03-31 22:04:00,
2013-03-31 18:09:00,78.6,67.2,30.07,South,172,0.0,8.0,68,0.00,,,0.00,Wunderground v.1.15,2013-03-31 22:09:00,
2013-03-31 18:14:00,79.0,67.1,30.07,ESE,120,1.0,5.0,67,0.00,,,0.00,Wunderground v.1.15,2013-03-31 22:14:00,
2013-03-31 18:19:00,78.1,66.7,30.07,SSE,160,4.0,8.0,68,0.00,,,0.00,Wunderground v.1.15,2013-03-31 22:19:00,
2013-03-31 18:24:00,77.3,66.3,30.08,SW,216,1.0,6.0,69,0.00,,,0.00,Wunderground v.1.15,2013-03-31 22:24:00,
2013-03-31 18:29:00,76.9,66.4,30.08,SE,134,0.0,6.0,70,0.00,,,0.00,Wunderground v.1.15,2013-03-31 22:29:00,
2013-03-31 18:35:00,76.8,66.3,30.08,SSE,155,4.0,6.0,70,0.00,,,0.00,Wunderground v.1.15,2013-03-31 22:35:00,
2013-03-31 18:40:00,76.5,66.4,30.08,ENE,61,2.0,6.0,71,0.00,,,0.00,Wunderground v.1.15,2013-03-31 22:40:00,
2013-03-31 18:44:00,76.3,66.2,30.08,South,181,1.0,5.0,71,0.00,,,0.00,Wunderground v.1.15,2013-03-31 22:44:00,
2013-03-31 18:49:00,76.2,66.5,30.08,SSE,163,5.0,9.0,72,0.00,,,0.00,Wunderground v.1.15,2013-03-31 22:49:00,
2013-03-31 18:55:00,75.9,66.2,30.07,SE,128,0.0,5.0,72,0.00,,,0.00,Wunderground v.1.15,2013-03-31 22:55:00,
2013-03-31 19:00:00,75.7,66.4,30.07,East,101,4.0,4.0,73,0.00,,,0.00,Wunderground v.1.15,2013-03-31 23:00:00,
2013-03-31 19:05:00,75.8,66.5,30.08,NNE,15,0.0,6.0,73,0.00,,,0.00,Wunderground v.1.15,2013-03-31 23:05:00,
2013-03-31 19:10:00,75.8,66.5,30.07,SE,128,0.0,2.0,73,0.00,,,0.00,Wunderground v.1.15,2013-03-31 23:10:00,
2013-03-31 19:15:00,75.6,66.3,30.07,SSE,167,3.0,7.0,73,0.00,,,0.00,Wunderground v.1.15,2013-03-31 23:15:00,
2013-03-31 19:20:00,75.3,66.4,30.07,ESE,108,2.0,5.0,74,0.00,,,0.00,Wunderground v.1.15,2013-03-31 23:20:00,
2013-03-31 19:25:00,75.0,66.1,30.07,ESE,123,4.0,11.0,74,0.00,,,0.00,Wunderground v.1.15,2013-03-31 23:25:00,
2013-03-31 19:30:00,74.7,66.2,30.07,ENE,78,0.0,2.0,75,0.00,,,0.00,Wunderground v.1.15,2013-03-31 23:30:00,
2013-03-31 19:35:00,74.5,66.1,30.07,East,90,1.0,4.0,75,0.00,,,0.00,Wunderground v.1.15,2013-03-31 23:35:00,
2013-03-31 19:40:00,74.3,66.2,30.07,ENE,68,5.0,5.0,76,0.00,,,0.00,Wunderground v.1.15,2013-03-31 23:40:00,
2013-03-31 19:45:00,74.1,66.0,30.07,East,93,0.0,5.0,76,0.00,,,0.00,Wunderground v.1.15,2013-03-31 23:45:00,
2013-03-31 19:50:00,74.0,66.3,30.07,East,101,6.0,6.0,77,0.00,,,0.00,Wunderground v.1.15,2013-03-31 23:50:00,
2013-03-31 19:55:00,73.9,65.9,30.07,East,85,1.0,8.0,76,0.00,,,0.00,Wunderground v.1.15,2013-03-31 23:55:00,
2013-03-31 20:00:00,73.8,66.1,30.08,South,189,0.0,4.0,77,0.00,,,0.00,Wunderground v.1.15,2013-04-01 00:00:00,
2013-03-31 20:05:00,73.7,66.0,30.07,ENE,65,0.0,4.0,77,0.00,,,0.00,Wunderground v.1.15,2013-04-01 00:05:00,
2013-03-31 20:10:00,73.6,66.3,30.08,SSE,159,2.0,4.0,78,0.00,,,0.00,Wunderground v.1.15,2013-04-01 00:10:00,
2013-03-31 20:16:00,73.5,66.2,30.08,South,191,0.0,4.0,78,0.00,,,0.00,Wunderground v.1.15,2013-04-01 00:16:00,
2013-03-31 20:21:00,73.3,66.0,30.08,East,83,0.0,2.0,78,0.00,,,0.00,Wunderground v.1.15,2013-04-01 00:21:00,
2013-03-31 20:27:00,73.2,65.9,30.08,East,99,0.0,2.0,78,0.00,,,0.00,Wunderground v.1.15,2013-04-01 00:27:00,
2013-03-31 20:32:00,73.1,66.2,30.08,South,174,1.0,3.0,79,0.00,,,0.00,Wunderground v.1.15,2013-04-01 00:32:00,
2013-03-31 20:37:00,73.0,66.1,30.08,East,86,0.0,3.0,79,0.00,,,0.00,Wunderground v.1.15,2013-04-01 00:37:00,
2013-03-31 20:42:00,72.9,66.0,30.08,ESE,111,0.0,1.0,79,0.00,,,0.00,Wunderground v.1.15,2013-04-01 00:42:00,
2013-03-31 20:47:00,72.9,66.0,30.08,ESE,109,0.0,3.0,79,0.00,,,0.00,Wunderground v.1.15,2013-04-01 00:47:00,
2013-03-31 20:52:00,72.7,66.2,30.07,ESE,116,0.0,1.0,80,0.00,,,0.00,Wunderground v.1.15,2013-04-01 00:52:00,
2013-03-31 20:57:00,72.6,66.1,30.08,South,170,0.0,1.0,80,0.00,,,0.00,Wunderground v.1.15,2013-04-01 00:57:00,
2013-03-31 21:02:00,72.4,65.9,30.08,SE,133,0.0,0.0,80,0.00,,,0.00,Wunderground v.1.15,2013-04-01 01:02:00,
2013-03-31 21:07:00,72.3,66.1,30.08,ESE,107,0.0,1.0,81,0.00,,,0.00,Wunderground v.1.15,2013-04-01 01:07:00,
2013-03-31 21:12:00,72.2,66.0,30.08,SE,135,0.0,1.0,81,0.00,,,0.00,Wunderground v.1.15,2013-04-01 01:12:00,
2013-03-31 21:18:00,72.0,65.8,30.08,East,91,1.0,1.0,81,0.00,,,0.00,Wunderground v.1.15,2013-04-01 01:18:00,